الصفحة الرئيسية
METAR-TAF:

METAR-TAF

مطار :

مطار ليبرفيل الدولي

ليبرفيل, الغابون

دائرة عرض: 00-27N, خط طول: 009-25E, ارتفاع: 12 متر

مراقبة الطقس الحالي

تاريخ ووقت الإصدار 43 دقيقة قبل الساعة 04:30UTC
ريح 6 عقدة من الجنوب/الجنوب الغربي
درجة الحرارة 25°درجة مئوية
الرطوبة 79%
ضغط 1015 hPa
الرؤية 10 كم أو أكثر
غيوم متفرقة على ارتفاع 1200 قدم

METAR: FOOL 090430Z 20006KT 9999 SCT012 25/21 Q1015 NOSIG

زمن: 06:13 (05:13 UTC)

توقعات

تاريخ ووقت الإصدار 6ساعات و 13 دقيقة قبل الساعة 23:00UTC
التوقعات صالحة من09 الساعة 00 UTC إلى 10 الساعة 06 UTC
ريح 8 عقدة من الغرب/الجنوب الغربي
الرؤية 10 كم أو أكثر
غيوم متفرقة على ارتفاع 1100 قدم
غيوم مفككة على ارتفاع 3300 قدم
مؤقت
من 09 الساعة 04 UTC إلى 09 الساعة 12 UTC
غيوم مفككة على ارتفاع 1000 قدم
ملبد بالغيوم على ارتفاع 2600 قدم
نظرية الاحتمالات 30%
من 09 الساعة 05 UTC إلى 09 الساعة 08 UTC
الرؤية: 4500 متر
مطر, رذاذ

TAF: FOOL 082300Z 0900/1006 24008KT 9999 SCT011 BKN033 TEMPO 0904/0912 BKN010 OVC026 PROB30 0905/0908 4500 RADZ

أرصاد الطقس والتوقعات من أكثر من 4000 مطار (تقارير الطقس للمطار METAR والتنبؤ بالطقس بالمطارTAF).

المحطات المتاحة هي النقط الصفراء والحمراء على الخريطة.

حرك المؤشر فوق النقطة لمعرفة اسم المحطة.

ثم انقر لمعرفة أرصاد وتوقعات الطقس.

لتغيير الخارطة: اضغط على الأزرار الخضراء مع رمز الصليب الأسود للتكبير. على الزر الأخضر مع شرطة للتصغير، أو على الأسهم الخضراء للخرائط المجاورة.


METAR-TAF: